sensor_id;sensor_type;location;lat;lon;timestamp;P1;durP1;ratioP1;P2;durP2;ratioP2
14698;SDS011;7439;50.804;4.602;2022-07-11T00:02:21;8.27;;;5.37;;
14698;SDS011;7439;50.804;4.602;2022-07-11T00:04:48;5.20;;;4.80;;
14698;SDS011;7439;50.804;4.602;2022-07-11T00:07:15;5.47;;;5.07;;
14698;SDS011;7439;50.804;4.602;2022-07-11T00:09:42;5.10;;;4.60;;
14698;SDS011;7439;50.804;4.602;2022-07-11T00:12:10;6.70;;;5.00;;
14698;SDS011;7439;50.804;4.602;2022-07-11T00:14:38;5.63;;;5.13;;
14698;SDS011;7439;50.804;4.602;2022-07-11T00:17:05;5.13;;;4.40;;
14698;SDS011;7439;50.804;4.602;2022-07-11T00:19:34;6.50;;;5.80;;
14698;SDS011;7439;50.804;4.602;2022-07-11T00:22:02;5.50;;;5.03;;
14698;SDS011;7439;50.804;4.602;2022-07-11T00:24:29;6.00;;;4.83;;
14698;SDS011;7439;50.804;4.602;2022-07-11T00:26:56;4.93;;;4.53;;
14698;SDS011;7439;50.804;4.602;2022-07-11T00:29:24;6.70;;;4.47;;
14698;SDS011;7439;50.804;4.602;2022-07-11T00:31:51;5.07;;;4.53;;
14698;SDS011;7439;50.804;4.602;2022-07-11T00:34:18;7.03;;;4.80;;
14698;SDS011;7439;50.804;4.602;2022-07-11T00:36:47;7.20;;;4.93;;
14698;SDS011;7439;50.804;4.602;2022-07-11T00:39:14;5.40;;;4.90;;
14698;SDS011;7439;50.804;4.602;2022-07-11T00:41:41;5.57;;;4.57;;
14698;SDS011;7439;50.804;4.602;2022-07-11T00:44:08;6.37;;;4.13;;
14698;SDS011;7439;50.804;4.602;2022-07-11T00:46:36;4.53;;;4.20;;
14698;SDS011;7439;50.804;4.602;2022-07-11T00:49:02;4.57;;;3.60;;
14698;SDS011;7439;50.804;4.602;2022-07-11T00:51:29;4.30;;;4.00;;
14698;SDS011;7439;50.804;4.602;2022-07-11T00:53:58;4.93;;;4.43;;
14698;SDS011;7439;50.804;4.602;2022-07-11T00:56:27;5.00;;;4.57;;
14698;SDS011;7439;50.804;4.602;2022-07-11T00:58:56;4.97;;;4.57;;
14698;SDS011;7439;50.804;4.602;2022-07-11T01:01:24;5.93;;;4.30;;
14698;SDS011;7439;50.804;4.602;2022-07-11T01:03:51;5.83;;;5.07;;
14698;SDS011;7439;50.804;4.602;2022-07-11T01:06:18;4.50;;;4.17;;
14698;SDS011;7439;50.804;4.602;2022-07-11T01:08:45;5.47;;;4.50;;
14698;SDS011;7439;50.804;4.602;2022-07-11T01:11:14;5.00;;;4.50;;
14698;SDS011;7439;50.804;4.602;2022-07-11T01:13:42;4.43;;;4.13;;
14698;SDS011;7439;50.804;4.602;2022-07-11T01:16:11;4.73;;;4.33;;
14698;SDS011;7439;50.804;4.602;2022-07-11T01:18:40;5.53;;;3.90;;
14698;SDS011;7439;50.804;4.602;2022-07-11T01:23:54;4.70;;;4.13;;
14698;SDS011;7439;50.804;4.602;2022-07-11T01:26:23;6.00;;;4.87;;
14698;SDS011;7439;50.804;4.602;2022-07-11T01:28:51;4.40;;;4.00;;
14698;SDS011;7439;50.804;4.602;2022-07-11T01:31:20;7.23;;;4.00;;
14698;SDS011;7439;50.804;4.602;2022-07-11T01:33:47;5.33;;;4.13;;
14698;SDS011;7439;50.804;4.602;2022-07-11T01:36:15;4.00;;;3.70;;
14698;SDS011;7439;50.804;4.602;2022-07-11T01:38:41;4.80;;;4.40;;
14698;SDS011;7439;50.804;4.602;2022-07-11T01:41:10;4.20;;;3.80;;
14698;SDS011;7439;50.804;4.602;2022-07-11T01:43:37;7.43;;;4.70;;
14698;SDS011;7439;50.804;4.602;2022-07-11T01:46:04;4.80;;;4.10;;
14698;SDS011;7439;50.804;4.602;2022-07-11T01:48:31;4.77;;;4.30;;
14698;SDS011;7439;50.804;4.602;2022-07-11T01:50:59;4.97;;;4.53;;
14698;SDS011;7439;50.804;4.602;2022-07-11T01:53:26;4.93;;;4.43;;
14698;SDS011;7439;50.804;4.602;2022-07-11T01:55:53;4.17;;;3.87;;
14698;SDS011;7439;50.804;4.602;2022-07-11T01:58:21;6.30;;;5.10;;
14698;SDS011;7439;50.804;4.602;2022-07-11T02:00:48;4.20;;;3.83;;
14698;SDS011;7439;50.804;4.602;2022-07-11T02:03:15;6.80;;;4.00;;
14698;SDS011;7439;50.804;4.602;2022-07-11T02:05:42;4.53;;;4.13;;
14698;SDS011;7439;50.804;4.602;2022-07-11T02:08:10;5.70;;;4.23;;
14698;SDS011;7439;50.804;4.602;2022-07-11T02:10:41;5.47;;;4.27;;
14698;SDS011;7439;50.804;4.602;2022-07-11T02:13:09;4.80;;;4.40;;
14698;SDS011;7439;50.804;4.602;2022-07-11T02:15:38;5.37;;;4.17;;
14698;SDS011;7439;50.804;4.602;2022-07-11T02:18:06;5.27;;;4.03;;
14698;SDS011;7439;50.804;4.602;2022-07-11T02:20:34;6.00;;;4.43;;
14698;SDS011;7439;50.804;4.602;2022-07-11T02:23:01;5.03;;;4.63;;
14698;SDS011;7439;50.804;4.602;2022-07-11T02:25:29;4.67;;;4.23;;
14698;SDS011;7439;50.804;4.602;2022-07-11T02:27:57;4.77;;;4.33;;
14698;SDS011;7439;50.804;4.602;2022-07-11T02:30:24;5.10;;;4.30;;
14698;SDS011;7439;50.804;4.602;2022-07-11T02:32:53;4.83;;;4.43;;
14698;SDS011;7439;50.804;4.602;2022-07-11T02:35:21;4.20;;;3.90;;
14698;SDS011;7439;50.804;4.602;2022-07-11T02:37:48;4.33;;;3.93;;
14698;SDS011;7439;50.804;4.602;2022-07-11T02:40:15;5.20;;;4.13;;
14698;SDS011;7439;50.804;4.602;2022-07-11T02:42:42;4.43;;;4.03;;
14698;SDS011;7439;50.804;4.602;2022-07-11T02:45:09;5.30;;;4.00;;
14698;SDS011;7439;50.804;4.602;2022-07-11T02:47:37;4.80;;;4.40;;
14698;SDS011;7439;50.804;4.602;2022-07-11T02:50:07;4.33;;;3.97;;
14698;SDS011;7439;50.804;4.602;2022-07-11T02:52:36;5.53;;;4.27;;
14698;SDS011;7439;50.804;4.602;2022-07-11T02:55:06;5.00;;;4.50;;
14698;SDS011;7439;50.804;4.602;2022-07-11T02:57:34;4.43;;;4.03;;
14698;SDS011;7439;50.804;4.602;2022-07-11T03:00:02;4.30;;;3.93;;
14698;SDS011;7439;50.804;4.602;2022-07-11T03:02:30;4.27;;;3.83;;
14698;SDS011;7439;50.804;4.602;2022-07-11T03:04:57;4.37;;;3.97;;
14698;SDS011;7439;50.804;4.602;2022-07-11T03:07:29;4.00;;;3.70;;
14698;SDS011;7439;50.804;4.602;2022-07-11T03:09:56;4.30;;;3.63;;
14698;SDS011;7439;50.804;4.602;2022-07-11T03:12:23;4.47;;;3.93;;
14698;SDS011;7439;50.804;4.602;2022-07-11T03:14:50;4.47;;;4.07;;
14698;SDS011;7439;50.804;4.602;2022-07-11T03:17:17;5.73;;;4.27;;
14698;SDS011;7439;50.804;4.602;2022-07-11T03:19:45;4.27;;;3.57;;
14698;SDS011;7439;50.804;4.602;2022-07-11T03:22:12;4.70;;;4.00;;
14698;SDS011;7439;50.804;4.602;2022-07-11T03:24:41;4.30;;;3.93;;
14698;SDS011;7439;50.804;4.602;2022-07-11T03:27:08;4.23;;;3.90;;
14698;SDS011;7439;50.804;4.602;2022-07-11T03:29:36;4.07;;;3.57;;
14698;SDS011;7439;50.804;4.602;2022-07-11T03:32:03;3.93;;;3.63;;
14698;SDS011;7439;50.804;4.602;2022-07-11T03:34:30;4.87;;;4.13;;
14698;SDS011;7439;50.804;4.602;2022-07-11T03:36:58;3.53;;;3.33;;
14698;SDS011;7439;50.804;4.602;2022-07-11T03:39:24;3.73;;;3.53;;
14698;SDS011;7439;50.804;4.602;2022-07-11T03:41:53;4.63;;;3.60;;
14698;SDS011;7439;50.804;4.602;2022-07-11T03:44:20;4.30;;;3.83;;
14698;SDS011;7439;50.804;4.602;2022-07-11T03:46:47;7.70;;;4.00;;
14698;SDS011;7439;50.804;4.602;2022-07-11T03:49:14;4.07;;;3.70;;
14698;SDS011;7439;50.804;4.602;2022-07-11T03:51:41;5.13;;;3.97;;
14698;SDS011;7439;50.804;4.602;2022-07-11T03:54:08;6.33;;;4.13;;
14698;SDS011;7439;50.804;4.602;2022-07-11T03:56:35;4.57;;;4.17;;
14698;SDS011;7439;50.804;4.602;2022-07-11T03:59:04;4.30;;;3.90;;
14698;SDS011;7439;50.804;4.602;2022-07-11T04:01:31;3.90;;;3.60;;
14698;SDS011;7439;50.804;4.602;2022-07-11T04:03:58;4.90;;;4.40;;
14698;SDS011;7439;50.804;4.602;2022-07-11T04:06:25;4.93;;;4.40;;
14698;SDS011;7439;50.804;4.602;2022-07-11T04:08:52;4.90;;;4.57;;
14698;SDS011;7439;50.804;4.602;2022-07-11T04:11:19;5.27;;;4.77;;
14698;SDS011;7439;50.804;4.602;2022-07-11T04:13:46;4.93;;;4.53;;
14698;SDS011;7439;50.804;4.602;2022-07-11T04:16:15;5.63;;;4.37;;
14698;SDS011;7439;50.804;4.602;2022-07-11T04:18:42;5.80;;;5.00;;
14698;SDS011;7439;50.804;4.602;2022-07-11T04:21:09;6.57;;;4.87;;
14698;SDS011;7439;50.804;4.602;2022-07-11T04:23:36;5.90;;;4.47;;
14698;SDS011;7439;50.804;4.602;2022-07-11T04:26:03;6.13;;;4.77;;
14698;SDS011;7439;50.804;4.602;2022-07-11T04:28:30;5.00;;;4.60;;
14698;SDS011;7439;50.804;4.602;2022-07-11T04:30:58;5.20;;;4.70;;
14698;SDS011;7439;50.804;4.602;2022-07-11T04:33:26;4.77;;;4.37;;
14698;SDS011;7439;50.804;4.602;2022-07-11T04:35:53;5.23;;;4.73;;
14698;SDS011;7439;50.804;4.602;2022-07-11T04:38:20;4.60;;;4.03;;
14698;SDS011;7439;50.804;4.602;2022-07-11T04:40:49;5.40;;;4.93;;
14698;SDS011;7439;50.804;4.602;2022-07-11T04:43:16;4.93;;;4.47;;
14698;SDS011;7439;50.804;4.602;2022-07-11T04:45:44;5.13;;;4.50;;
14698;SDS011;7439;50.804;4.602;2022-07-11T04:48:11;5.73;;;4.97;;
14698;SDS011;7439;50.804;4.602;2022-07-11T04:50:39;5.03;;;4.63;;
14698;SDS011;7439;50.804;4.602;2022-07-11T04:53:09;12.70;;;4.80;;
14698;SDS011;7439;50.804;4.602;2022-07-11T04:55:37;4.60;;;4.20;;
14698;SDS011;7439;50.804;4.602;2022-07-11T04:58:06;5.80;;;5.07;;
14698;SDS011;7439;50.804;4.602;2022-07-11T05:00:33;5.87;;;5.37;;
14698;SDS011;7439;50.804;4.602;2022-07-11T05:03:00;8.87;;;5.27;;
14698;SDS011;7439;50.804;4.602;2022-07-11T05:05:27;5.00;;;4.50;;
14698;SDS011;7439;50.804;4.602;2022-07-11T05:07:56;6.43;;;5.83;;
14698;SDS011;7439;50.804;4.602;2022-07-11T05:10:23;11.73;;;6.23;;
14698;SDS011;7439;50.804;4.602;2022-07-11T05:12:50;6.77;;;5.00;;
14698;SDS011;7439;50.804;4.602;2022-07-11T05:15:17;7.77;;;4.53;;
14698;SDS011;7439;50.804;4.602;2022-07-11T05:17:44;8.30;;;5.60;;
14698;SDS011;7439;50.804;4.602;2022-07-11T05:20:11;5.10;;;4.60;;
14698;SDS011;7439;50.804;4.602;2022-07-11T05:22:38;9.47;;;5.27;;
14698;SDS011;7439;50.804;4.602;2022-07-11T05:25:07;6.03;;;4.30;;
14698;SDS011;7439;50.804;4.602;2022-07-11T05:27:34;4.93;;;4.53;;
14698;SDS011;7439;50.804;4.602;2022-07-11T05:30:01;6.07;;;3.77;;
14698;SDS011;7439;50.804;4.602;2022-07-11T05:32:29;5.30;;;4.20;;
14698;SDS011;7439;50.804;4.602;2022-07-11T05:34:56;4.10;;;3.70;;
14698;SDS011;7439;50.804;4.602;2022-07-11T05:37:23;5.77;;;3.90;;
14698;SDS011;7439;50.804;4.602;2022-07-11T05:39:50;6.33;;;4.63;;
14698;SDS011;7439;50.804;4.602;2022-07-11T05:42:19;4.13;;;3.73;;
14698;SDS011;7439;50.804;4.602;2022-07-11T05:44:46;4.03;;;3.73;;
14698;SDS011;7439;50.804;4.602;2022-07-11T05:47:14;4.10;;;3.80;;
14698;SDS011;7439;50.804;4.602;2022-07-11T05:49:42;5.77;;;4.47;;
14698;SDS011;7439;50.804;4.602;2022-07-11T05:52:09;7.00;;;4.00;;
14698;SDS011;7439;50.804;4.602;2022-07-11T05:54:36;4.43;;;4.00;;
14698;SDS011;7439;50.804;4.602;2022-07-11T05:57:04;8.03;;;4.90;;
14698;SDS011;7439;50.804;4.602;2022-07-11T05:59:33;4.90;;;4.50;;
14698;SDS011;7439;50.804;4.602;2022-07-11T06:02:01;5.13;;;4.70;;
14698;SDS011;7439;50.804;4.602;2022-07-11T06:04:28;6.27;;;5.37;;
14698;SDS011;7439;50.804;4.602;2022-07-11T06:06:55;9.20;;;6.73;;
14698;SDS011;7439;50.804;4.602;2022-07-11T06:09:22;10.30;;;7.80;;
14698;SDS011;7439;50.804;4.602;2022-07-11T06:11:48;16.13;;;13.57;;
14698;SDS011;7439;50.804;4.602;2022-07-11T06:14:15;14.67;;;13.10;;
14698;SDS011;7439;50.804;4.602;2022-07-11T06:16:43;16.10;;;13.73;;
14698;SDS011;7439;50.804;4.602;2022-07-11T06:19:10;13.03;;;10.50;;
14698;SDS011;7439;50.804;4.602;2022-07-11T06:21:37;11.40;;;10.27;;
14698;SDS011;7439;50.804;4.602;2022-07-11T06:24:04;17.40;;;12.23;;
14698;SDS011;7439;50.804;4.602;2022-07-11T06:26:31;13.90;;;10.00;;
14698;SDS011;7439;50.804;4.602;2022-07-11T06:28:59;17.00;;;13.30;;
14698;SDS011;7439;50.804;4.602;2022-07-11T06:31:25;14.90;;;11.50;;
14698;SDS011;7439;50.804;4.602;2022-07-11T06:33:54;15.67;;;12.17;;
14698;SDS011;7439;50.804;4.602;2022-07-11T06:36:22;14.47;;;12.93;;
14698;SDS011;7439;50.804;4.602;2022-07-11T06:38:49;17.77;;;13.93;;
14698;SDS011;7439;50.804;4.602;2022-07-11T06:41:17;18.63;;;13.80;;
14698;SDS011;7439;50.804;4.602;2022-07-11T06:43:44;15.33;;;12.87;;
14698;SDS011;7439;50.804;4.602;2022-07-11T06:46:13;16.73;;;12.43;;
14698;SDS011;7439;50.804;4.602;2022-07-11T06:48:40;14.37;;;12.73;;
14698;SDS011;7439;50.804;4.602;2022-07-11T06:51:08;16.77;;;13.73;;
14698;SDS011;7439;50.804;4.602;2022-07-11T06:53:35;13.83;;;12.40;;
14698;SDS011;7439;50.804;4.602;2022-07-11T06:56:02;12.83;;;11.53;;
14698;SDS011;7439;50.804;4.602;2022-07-11T06:58:29;13.73;;;12.17;;
14698;SDS011;7439;50.804;4.602;2022-07-11T07:00:59;15.27;;;12.03;;
14698;SDS011;7439;50.804;4.602;2022-07-11T07:03:27;13.20;;;10.77;;
14698;SDS011;7439;50.804;4.602;2022-07-11T07:05:55;12.07;;;10.57;;
14698;SDS011;7439;50.804;4.602;2022-07-11T07:08:25;13.20;;;11.90;;
14698;SDS011;7439;50.804;4.602;2022-07-11T07:10:53;12.23;;;10.40;;
14698;SDS011;7439;50.804;4.602;2022-07-11T07:13:20;12.27;;;10.43;;
14698;SDS011;7439;50.804;4.602;2022-07-11T07:15:50;10.53;;;9.60;;
14698;SDS011;7439;50.804;4.602;2022-07-11T07:18:17;11.77;;;9.90;;
14698;SDS011;7439;50.804;4.602;2022-07-11T07:20:45;10.47;;;9.13;;
14698;SDS011;7439;50.804;4.602;2022-07-11T07:23:13;10.63;;;9.33;;
14698;SDS011;7439;50.804;4.602;2022-07-11T07:25:42;11.13;;;8.93;;
14698;SDS011;7439;50.804;4.602;2022-07-11T07:28:09;11.23;;;8.83;;
14698;SDS011;7439;50.804;4.602;2022-07-11T07:30:36;10.10;;;8.03;;
14698;SDS011;7439;50.804;4.602;2022-07-11T07:33:03;10.67;;;8.03;;
14698;SDS011;7439;50.804;4.602;2022-07-11T07:35:30;11.70;;;7.83;;
14698;SDS011;7439;50.804;4.602;2022-07-11T07:37:57;8.10;;;7.30;;
14698;SDS011;7439;50.804;4.602;2022-07-11T07:40:25;12.57;;;8.83;;
14698;SDS011;7439;50.804;4.602;2022-07-11T07:42:54;10.37;;;7.83;;
14698;SDS011;7439;50.804;4.602;2022-07-11T07:45:23;8.43;;;7.60;;
14698;SDS011;7439;50.804;4.602;2022-07-11T07:47:50;10.17;;;7.63;;
14698;SDS011;7439;50.804;4.602;2022-07-11T07:50:17;9.60;;;7.17;;
14698;SDS011;7439;50.804;4.602;2022-07-11T07:52:44;12.33;;;7.93;;
14698;SDS011;7439;50.804;4.602;2022-07-11T07:55:11;6.63;;;5.93;;
14698;SDS011;7439;50.804;4.602;2022-07-11T07:57:38;6.90;;;5.30;;
14698;SDS011;7439;50.804;4.602;2022-07-11T08:00:08;5.97;;;5.30;;
14698;SDS011;7439;50.804;4.602;2022-07-11T08:02:52;8.53;;;5.97;;
14698;SDS011;7439;50.804;4.602;2022-07-11T08:05:19;8.17;;;5.17;;
14698;SDS011;7439;50.804;4.602;2022-07-11T08:07:47;6.90;;;5.03;;
14698;SDS011;7439;50.804;4.602;2022-07-11T08:10:14;6.77;;;5.23;;
14698;SDS011;7439;50.804;4.602;2022-07-11T08:12:41;6.97;;;5.33;;
14698;SDS011;7439;50.804;4.602;2022-07-11T08:15:10;5.90;;;5.30;;
14698;SDS011;7439;50.804;4.602;2022-07-11T08:17:37;5.50;;;5.00;;
14698;SDS011;7439;50.804;4.602;2022-07-11T08:20:04;4.97;;;4.37;;
14698;SDS011;7439;50.804;4.602;2022-07-11T08:22:32;5.90;;;4.87;;
14698;SDS011;7439;50.804;4.602;2022-07-11T08:24:59;7.33;;;5.87;;
14698;SDS011;7439;50.804;4.602;2022-07-11T08:27:26;7.57;;;5.07;;
14698;SDS011;7439;50.804;4.602;2022-07-11T08:29:53;6.57;;;4.63;;
14698;SDS011;7439;50.804;4.602;2022-07-11T08:32:21;8.70;;;5.10;;
14698;SDS011;7439;50.804;4.602;2022-07-11T08:34:49;7.77;;;4.90;;
14698;SDS011;7439;50.804;4.602;2022-07-11T08:37:16;9.37;;;5.13;;
14698;SDS011;7439;50.804;4.602;2022-07-11T08:39:43;7.40;;;4.73;;
14698;SDS011;7439;50.804;4.602;2022-07-11T08:42:10;4.93;;;3.47;;
14698;SDS011;7439;50.804;4.602;2022-07-11T08:44:37;6.77;;;3.50;;
14698;SDS011;7439;50.804;4.602;2022-07-11T08:47:05;5.47;;;2.73;;
14698;SDS011;7439;50.804;4.602;2022-07-11T08:49:34;5.83;;;3.27;;
14698;SDS011;7439;50.804;4.602;2022-07-11T08:52:01;5.27;;;3.30;;
14698;SDS011;7439;50.804;4.602;2022-07-11T08:54:30;3.83;;;3.30;;
14698;SDS011;7439;50.804;4.602;2022-07-11T08:56:57;4.40;;;3.37;;
14698;SDS011;7439;50.804;4.602;2022-07-11T08:59:24;7.50;;;3.20;;
14698;SDS011;7439;50.804;4.602;2022-07-11T09:01:54;2.90;;;2.60;;
14698;SDS011;7439;50.804;4.602;2022-07-11T09:04:24;3.47;;;2.80;;
14698;SDS011;7439;50.804;4.602;2022-07-11T09:06:54;5.40;;;2.80;;
14698;SDS011;7439;50.804;4.602;2022-07-11T09:09:21;4.27;;;2.60;;
14698;SDS011;7439;50.804;4.602;2022-07-11T09:11:49;4.77;;;2.60;;
14698;SDS011;7439;50.804;4.602;2022-07-11T09:14:19;4.20;;;2.87;;
14698;SDS011;7439;50.804;4.602;2022-07-11T09:16:54;4.43;;;3.10;;
14698;SDS011;7439;50.804;4.602;2022-07-11T09:19:22;3.73;;;3.27;;
14698;SDS011;7439;50.804;4.602;2022-07-11T09:21:58;6.17;;;3.60;;
14698;SDS011;7439;50.804;4.602;2022-07-11T09:24:58;4.80;;;3.70;;
14698;SDS011;7439;50.804;4.602;2022-07-11T09:27:44;4.07;;;3.03;;
14698;SDS011;7439;50.804;4.602;2022-07-11T09:30:20;5.03;;;2.87;;
14698;SDS011;7439;50.804;4.602;2022-07-11T09:32:59;6.97;;;2.80;;
14698;SDS011;7439;50.804;4.602;2022-07-11T09:35:27;3.27;;;2.70;;
14698;SDS011;7439;50.804;4.602;2022-07-11T09:37:58;4.10;;;2.83;;
14698;SDS011;7439;50.804;4.602;2022-07-11T09:40:28;4.43;;;2.83;;
14698;SDS011;7439;50.804;4.602;2022-07-11T09:42:56;5.73;;;2.50;;
14698;SDS011;7439;50.804;4.602;2022-07-11T09:45:24;3.93;;;2.83;;
14698;SDS011;7439;50.804;4.602;2022-07-11T09:47:53;3.17;;;2.33;;
14698;SDS011;7439;50.804;4.602;2022-07-11T09:50:21;5.17;;;2.70;;
14698;SDS011;7439;50.804;4.602;2022-07-11T09:53:00;3.90;;;2.80;;
14698;SDS011;7439;50.804;4.602;2022-07-11T09:55:29;5.17;;;2.93;;
14698;SDS011;7439;50.804;4.602;2022-07-11T09:57:56;3.33;;;2.63;;
14698;SDS011;7439;50.804;4.602;2022-07-11T10:00:23;4.23;;;2.50;;
14698;SDS011;7439;50.804;4.602;2022-07-11T10:02:51;3.53;;;2.57;;
14698;SDS011;7439;50.804;4.602;2022-07-11T10:05:20;2.83;;;2.20;;
14698;SDS011;7439;50.804;4.602;2022-07-11T10:07:47;3.50;;;2.20;;
14698;SDS011;7439;50.804;4.602;2022-07-11T10:10:16;2.70;;;2.33;;
14698;SDS011;7439;50.804;4.602;2022-07-11T10:12:43;2.63;;;2.43;;
14698;SDS011;7439;50.804;4.602;2022-07-11T10:15:13;2.93;;;2.33;;
14698;SDS011;7439;50.804;4.602;2022-07-11T10:17:44;4.47;;;2.20;;
14698;SDS011;7439;50.804;4.602;2022-07-11T10:20:21;3.17;;;2.27;;
14698;SDS011;7439;50.804;4.602;2022-07-11T10:22:53;3.80;;;2.20;;
14698;SDS011;7439;50.804;4.602;2022-07-11T10:25:33;4.20;;;2.57;;
14698;SDS011;7439;50.804;4.602;2022-07-11T10:28:07;3.38;;;1.95;;
14698;SDS011;7439;50.804;4.602;2022-07-11T10:30:40;2.00;;;1.80;;
14698;SDS011;7439;50.804;4.602;2022-07-11T10:33:09;2.35;;;1.77;;
14698;SDS011;7439;50.804;4.602;2022-07-11T10:35:39;3.33;;;2.00;;
14698;SDS011;7439;50.804;4.602;2022-07-11T10:38:06;2.37;;;1.90;;
14698;SDS011;7439;50.804;4.602;2022-07-11T10:40:41;3.43;;;1.77;;
14698;SDS011;7439;50.804;4.602;2022-07-11T10:43:13;2.37;;;2.00;;
14698;SDS011;7439;50.804;4.602;2022-07-11T10:45:54;2.83;;;1.70;;
14698;SDS011;7439;50.804;4.602;2022-07-11T10:48:23;2.20;;;1.90;;
14698;SDS011;7439;50.804;4.602;2022-07-11T10:51:00;3.23;;;2.00;;
14698;SDS011;7439;50.804;4.602;2022-07-11T10:53:38;1.80;;;1.70;;
14698;SDS011;7439;50.804;4.602;2022-07-11T10:56:12;3.43;;;1.90;;
14698;SDS011;7439;50.804;4.602;2022-07-11T10:58:58;2.67;;;1.50;;
14698;SDS011;7439;50.804;4.602;2022-07-11T11:01:33;4.00;;;1.53;;
14698;SDS011;7439;50.804;4.602;2022-07-11T11:07:29;2.20;;;1.57;;
14698;SDS011;7439;50.804;4.602;2022-07-11T11:10:02;6.17;;;1.77;;
14698;SDS011;7439;50.804;4.602;2022-07-11T11:13:13;2.07;;;1.47;;
14698;SDS011;7439;50.804;4.602;2022-07-11T11:15:41;2.83;;;1.80;;
14698;SDS011;7439;50.804;4.602;2022-07-11T11:24:01;3.20;;;1.57;;
14698;SDS011;7439;50.804;4.602;2022-07-11T11:29:26;3.17;;;2.00;;
14698;SDS011;7439;50.804;4.602;2022-07-11T11:31:56;2.93;;;1.87;;
14698;SDS011;7439;50.804;4.602;2022-07-11T11:34:25;2.70;;;1.70;;
14698;SDS011;7439;50.804;4.602;2022-07-11T11:36:56;3.10;;;1.87;;
14698;SDS011;7439;50.804;4.602;2022-07-11T11:39:26;2.50;;;2.20;;
14698;SDS011;7439;50.804;4.602;2022-07-11T11:42:03;3.47;;;2.10;;
14698;SDS011;7439;50.804;4.602;2022-07-11T11:44:34;2.97;;;1.77;;
14698;SDS011;7439;50.804;4.602;2022-07-11T11:47:13;2.33;;;1.70;;
14698;SDS011;7439;50.804;4.602;2022-07-11T11:49:40;1.90;;;1.50;;
14698;SDS011;7439;50.804;4.602;2022-07-11T11:52:08;2.17;;;1.70;;
14698;SDS011;7439;50.804;4.602;2022-07-11T11:54:35;3.37;;;1.60;;
14698;SDS011;7439;50.804;4.602;2022-07-11T11:57:04;3.10;;;1.80;;
14698;SDS011;7439;50.804;4.602;2022-07-11T11:59:34;2.87;;;1.90;;
14698;SDS011;7439;50.804;4.602;2022-07-11T12:02:01;2.50;;;2.30;;
14698;SDS011;7439;50.804;4.602;2022-07-11T12:04:30;3.70;;;1.90;;
14698;SDS011;7439;50.804;4.602;2022-07-11T12:06:58;2.97;;;2.10;;
14698;SDS011;7439;50.804;4.602;2022-07-11T12:09:26;3.63;;;2.07;;
14698;SDS011;7439;50.804;4.602;2022-07-11T12:12:07;2.53;;;2.10;;
14698;SDS011;7439;50.804;4.602;2022-07-11T12:14:53;3.80;;;2.23;;
14698;SDS011;7439;50.804;4.602;2022-07-11T12:17:24;2.50;;;2.30;;
14698;SDS011;7439;50.804;4.602;2022-07-11T12:19:51;3.60;;;2.20;;
14698;SDS011;7439;50.804;4.602;2022-07-11T12:22:19;2.60;;;2.15;;
14698;SDS011;7439;50.804;4.602;2022-07-11T12:24:46;2.35;;;2.03;;
14698;SDS011;7439;50.804;4.602;2022-07-11T12:27:16;3.08;;;2.42;;
14698;SDS011;7439;50.804;4.602;2022-07-11T12:29:44;3.40;;;2.38;;
14698;SDS011;7439;50.804;4.602;2022-07-11T12:32:17;4.50;;;2.60;;
14698;SDS011;7439;50.804;4.602;2022-07-11T12:34:46;3.60;;;2.30;;
14698;SDS011;7439;50.804;4.602;2022-07-11T12:37:15;2.10;;;1.90;;
14698;SDS011;7439;50.804;4.602;2022-07-11T12:39:46;2.30;;;2.10;;
14698;SDS011;7439;50.804;4.602;2022-07-11T12:42:22;2.30;;;2.10;;
14698;SDS011;7439;50.804;4.602;2022-07-11T12:44:57;4.45;;;2.60;;
14698;SDS011;7439;50.804;4.602;2022-07-11T12:47:27;2.42;;;2.22;;
14698;SDS011;7439;50.804;4.602;2022-07-11T12:49:55;2.35;;;2.17;;
14698;SDS011;7439;50.804;4.602;2022-07-11T12:52:22;2.93;;;2.63;;
14698;SDS011;7439;50.804;4.602;2022-07-11T12:54:50;3.03;;;2.73;;
14698;SDS011;7439;50.804;4.602;2022-07-11T12:57:25;2.40;;;2.20;;
14698;SDS011;7439;50.804;4.602;2022-07-11T12:59:52;3.53;;;2.17;;
14698;SDS011;7439;50.804;4.602;2022-07-11T13:02:19;2.50;;;2.30;;
14698;SDS011;7439;50.804;4.602;2022-07-11T13:04:53;2.63;;;2.43;;
14698;SDS011;7439;50.804;4.602;2022-07-11T13:07:24;2.67;;;2.30;;
14698;SDS011;7439;50.804;4.602;2022-07-11T13:10:10;2.20;;;2.00;;
14698;SDS011;7439;50.804;4.602;2022-07-11T13:12:40;2.07;;;1.97;;
14698;SDS011;7439;50.804;4.602;2022-07-11T13:15:07;2.03;;;1.80;;
14698;SDS011;7439;50.804;4.602;2022-07-11T13:17:40;2.33;;;2.13;;
14698;SDS011;7439;50.804;4.602;2022-07-11T13:20:09;2.97;;;2.20;;
14698;SDS011;7439;50.804;4.602;2022-07-11T13:22:39;2.60;;;2.40;;
14698;SDS011;7439;50.804;4.602;2022-07-11T13:25:06;2.40;;;2.20;;
14698;SDS011;7439;50.804;4.602;2022-07-11T13:27:35;1.97;;;1.87;;
14698;SDS011;7439;50.804;4.602;2022-07-11T13:30:03;1.90;;;1.80;;
14698;SDS011;7439;50.804;4.602;2022-07-11T13:32:37;3.83;;;2.13;;
14698;SDS011;7439;50.804;4.602;2022-07-11T13:35:05;3.23;;;2.40;;
14698;SDS011;7439;50.804;4.602;2022-07-11T13:37:33;2.70;;;2.50;;
14698;SDS011;7439;50.804;4.602;2022-07-11T13:40:04;2.33;;;2.05;;
14698;SDS011;7439;50.804;4.602;2022-07-11T13:42:31;2.50;;;2.30;;
14698;SDS011;7439;50.804;4.602;2022-07-11T13:44:58;2.90;;;2.40;;
14698;SDS011;7439;50.804;4.602;2022-07-11T13:47:27;2.27;;;2.07;;
14698;SDS011;7439;50.804;4.602;2022-07-11T13:49:55;2.60;;;2.30;;
14698;SDS011;7439;50.804;4.602;2022-07-11T13:52:22;3.43;;;2.37;;
14698;SDS011;7439;50.804;4.602;2022-07-11T13:54:49;2.80;;;2.60;;
14698;SDS011;7439;50.804;4.602;2022-07-11T13:57:16;2.57;;;2.37;;
14698;SDS011;7439;50.804;4.602;2022-07-11T13:59:45;2.87;;;2.67;;
14698;SDS011;7439;50.804;4.602;2022-07-11T14:02:12;2.87;;;2.67;;
14698;SDS011;7439;50.804;4.602;2022-07-11T14:04:39;2.93;;;2.73;;
14698;SDS011;7439;50.804;4.602;2022-07-11T14:07:08;3.47;;;3.23;;
14698;SDS011;7439;50.804;4.602;2022-07-11T14:09:36;2.90;;;2.70;;
14698;SDS011;7439;50.804;4.602;2022-07-11T14:12:05;2.20;;;2.10;;
14698;SDS011;7439;50.804;4.602;2022-07-11T14:14:32;3.10;;;2.80;;
14698;SDS011;7439;50.804;4.602;2022-07-11T14:17:00;3.53;;;3.23;;
14698;SDS011;7439;50.804;4.602;2022-07-11T14:19:27;3.70;;;3.40;;
14698;SDS011;7439;50.804;4.602;2022-07-11T14:21:55;3.83;;;3.40;;
14698;SDS011;7439;50.804;4.602;2022-07-11T14:24:23;4.03;;;3.73;;
14698;SDS011;7439;50.804;4.602;2022-07-11T14:26:51;6.03;;;3.90;;
14698;SDS011;7439;50.804;4.602;2022-07-11T14:29:18;4.57;;;4.17;;
14698;SDS011;7439;50.804;4.602;2022-07-11T14:31:46;4.47;;;4.17;;
14698;SDS011;7439;50.804;4.602;2022-07-11T14:34:13;4.30;;;4.00;;
14698;SDS011;7439;50.804;4.602;2022-07-11T14:36:39;4.83;;;4.30;;
14698;SDS011;7439;50.804;4.602;2022-07-11T14:39:06;3.93;;;3.63;;
14698;SDS011;7439;50.804;4.602;2022-07-11T14:41:35;3.97;;;3.67;;
14698;SDS011;7439;50.804;4.602;2022-07-11T14:44:03;3.77;;;3.47;;
14698;SDS011;7439;50.804;4.602;2022-07-11T14:46:30;4.83;;;4.13;;
14698;SDS011;7439;50.804;4.602;2022-07-11T14:48:57;4.37;;;4.03;;
14698;SDS011;7439;50.804;4.602;2022-07-11T14:51:24;4.10;;;3.70;;
14698;SDS011;7439;50.804;4.602;2022-07-11T14:53:52;4.97;;;4.20;;
14698;SDS011;7439;50.804;4.602;2022-07-11T14:56:20;4.80;;;4.40;;
14698;SDS011;7439;50.804;4.602;2022-07-11T14:58:48;4.63;;;4.23;;
14698;SDS011;7439;50.804;4.602;2022-07-11T15:01:15;5.47;;;4.93;;
14698;SDS011;7439;50.804;4.602;2022-07-11T15:03:42;5.37;;;4.83;;
14698;SDS011;7439;50.804;4.602;2022-07-11T15:06:10;5.53;;;5.03;;
14698;SDS011;7439;50.804;4.602;2022-07-11T15:08:38;5.03;;;4.50;;
14698;SDS011;7439;50.804;4.602;2022-07-11T15:11:23;5.47;;;4.97;;
14698;SDS011;7439;50.804;4.602;2022-07-11T15:14:09;5.67;;;5.27;;
14698;SDS011;7439;50.804;4.602;2022-07-11T15:16:37;5.40;;;4.90;;
14698;SDS011;7439;50.804;4.602;2022-07-11T15:19:07;5.50;;;4.97;;
14698;SDS011;7439;50.804;4.602;2022-07-11T15:21:34;5.17;;;4.73;;
14698;SDS011;7439;50.804;4.602;2022-07-11T15:24:02;4.90;;;4.27;;